Banks, Mississippi
Current Conditions -  °F | °C
As of 6:15 PM on Sunday 23 Nov 2014 (Local Time) from KUTA Reporting Station
Broken Clouds Broken Clouds  
Wind Chill: 61°   Ceiling: 2300
Heat Index: 61°   Visibility: 10mi
Dew Point: 59°   Wind: 14mph
Humidity: 94%   Direction: 190°S
Pressure: 29.44"   Gusts: 17mph
Location:  34.8092°N, 90.3159°W
Report Text: KUTA 240015Z AUTO 19012G15KT 10SM SCT006 BKN023 16/15 A2944 RMK AO2
Loading
Personal Weather Stations






























Interactive Weather Map New forecast layout! Learn more

10-Day Weather Forecast

Advertisements
Track Severe Weather on mobile